createdAt,value
2022-09-03T08:26:41.289Z,96662.88
2022-09-03T08:29:08.500Z,96663.19
2022-09-03T08:31:36.645Z,96658.88
2022-09-03T08:34:06.748Z,96656.50
2022-09-03T08:36:38.511Z,96660.28
2022-09-03T08:39:10.964Z,96656.78
2022-09-03T08:42:08.311Z,96650.16
2022-09-03T08:44:49.889Z,96650.97
2022-09-03T08:47:25.121Z,96644.84
2022-09-03T08:49:55.354Z,96664.28
2022-09-03T08:52:28.447Z,96648.09
2022-09-03T08:55:02.406Z,96648.56
2022-09-03T08:57:36.947Z,96642.19
2022-09-03T09:00:04.491Z,96651.88
2022-09-03T09:03:09.980Z,96654.00
2022-09-03T09:05:51.142Z,96648.47
2022-09-03T09:08:20.432Z,96654.44
2022-09-03T09:10:52.863Z,96640.91
2022-09-03T09:13:34.433Z,96641.66
2022-09-03T09:16:23.591Z,96640.59
2022-09-03T09:18:59.429Z,96635.28
2022-09-03T09:21:39.499Z,96630.25
2022-09-03T09:24:12.949Z,96635.47
2022-09-03T09:26:41.730Z,96627.44
2022-09-03T09:29:10.773Z,96619.72
2022-09-03T09:31:45.073Z,96618.81
2022-09-03T09:34:12.035Z,96613.06
2022-09-03T09:36:47.659Z,96618.47
2022-09-03T09:39:17.626Z,96610.88
2022-09-03T09:41:56.601Z,96608.41
2022-09-03T09:44:25.934Z,96612.94
2022-09-03T09:47:04.815Z,96616.75
2022-09-03T09:49:37.010Z,96613.88
2022-09-03T09:52:12.383Z,96617.63
2022-09-03T09:54:41.872Z,96619.69
2022-09-03T09:57:18.201Z,96612.56
2022-09-03T09:59:46.215Z,96613.31
2022-09-03T10:02:34.546Z,96617.66
2022-09-03T10:05:25.654Z,96621.69
2022-09-03T10:08:20.914Z,96621.06
2022-09-03T10:10:51.056Z,96620.91
2022-09-03T10:13:24.375Z,96624.72
2022-09-03T10:16:05.580Z,96629.44
2022-09-03T10:19:10.229Z,96627.25
2022-09-03T10:21:47.578Z,96619.09
2022-09-03T10:24:34.216Z,96621.41
2022-09-03T10:27:01.723Z,96616.31
2022-09-03T10:29:30.194Z,96620.91
2022-09-03T10:32:13.479Z,96619.97
2022-09-03T10:34:46.116Z,96619.69
2022-09-03T10:37:34.464Z,96617.94
2022-09-03T10:40:07.561Z,96623.00
2022-09-03T10:42:52.408Z,96618.50
2022-09-03T10:45:37.696Z,96614.94
2022-09-03T10:48:40.137Z,96622.31
2022-09-03T10:51:20.433Z,96622.81
2022-09-03T10:54:08.299Z,96626.66
2022-09-03T10:56:43.606Z,96631.34
2022-09-03T10:59:12.870Z,96627.69
2022-09-03T11:01:57.101Z,96628.81
2022-09-03T11:04:38.981Z,96615.00
2022-09-03T11:07:09.913Z,96623.59
2022-09-03T11:09:51.513Z,96623.13
2022-09-03T11:12:27.834Z,96622.81
2022-09-03T11:15:03.773Z,96623.63
2022-09-03T11:17:38.174Z,96616.50
2022-09-03T11:20:19.046Z,96608.75
2022-09-03T11:22:47.871Z,96606.63
2022-09-03T11:25:17.564Z,96595.53
2022-09-03T11:28:18.213Z,96594.94
2022-09-03T11:31:03.645Z,96589.59
2022-09-03T11:33:33.543Z,96590.06
2022-09-03T11:36:01.739Z,96595.88
2022-09-03T11:38:31.969Z,96598.72
2022-09-03T11:41:04.215Z,96601.25
2022-09-03T11:43:32.978Z,96615.28
2022-09-03T11:46:14.684Z,96618.69
2022-09-03T11:48:45.980Z,96617.47
2022-09-03T11:51:30.651Z,96608.69
2022-09-03T11:54:13.350Z,96605.25
2022-09-03T11:56:42.361Z,96595.78
2022-09-03T11:59:17.158Z,96596.88
2022-09-03T12:01:52.897Z,96598.72
2022-09-03T12:04:31.358Z,96597.13
2022-09-03T12:07:38.568Z,96593.66
2022-09-03T12:10:05.074Z,96577.50
2022-09-03T12:12:31.494Z,96572.59
2022-09-03T12:15:19.205Z,96568.06
2022-09-03T12:18:21.623Z,96571.03
2022-09-03T12:20:59.606Z,96577.81
2022-09-03T12:23:32.375Z,96583.31
2022-09-03T12:26:06.066Z,96580.81
2022-09-03T12:28:37.332Z,96570.72
2022-09-03T12:31:22.515Z,96572.16
2022-09-03T12:34:11.382Z,96562.84
2022-09-03T12:36:41.055Z,96567.44
2022-09-03T12:39:13.511Z,96568.22
2022-09-03T12:41:57.047Z,96566.00
2022-09-03T12:44:39.451Z,96551.53
2022-09-03T12:47:37.012Z,96557.53
2022-09-03T12:50:11.088Z,96566.66
2022-09-03T12:52:56.401Z,96572.91
2022-09-03T12:55:35.470Z,96591.03
2022-09-03T12:58:17.192Z,96592.06
2022-09-03T13:01:03.945Z,96598.38
2022-09-03T13:03:43.365Z,96596.97
2022-09-03T13:06:14.186Z,96598.78
2022-09-03T13:09:10.662Z,96585.03
2022-09-03T13:11:37.390Z,96578.03
2022-09-03T13:14:12.547Z,96575.28
2022-09-03T13:16:45.078Z,96577.47
2022-09-03T13:19:35.905Z,96580.03
2022-09-03T13:22:08.283Z,96577.34
2022-09-03T13:24:59.885Z,96583.97
2022-09-03T13:27:43.056Z,96584.41
2022-09-03T13:30:13.617Z,96586.50
2022-09-03T13:33:01.068Z,96579.69
2022-09-03T13:35:42.630Z,96583.00
2022-09-03T13:38:25.820Z,96569.63
2022-09-03T13:41:05.631Z,96572.63
2022-09-03T13:43:43.897Z,96568.31
2022-09-03T13:46:39.981Z,96577.16
2022-09-03T13:49:40.724Z,96588.19
2022-09-03T13:52:19.504Z,96587.88
2022-09-03T13:54:53.121Z,96582.69
2022-09-03T13:57:32.751Z,96582.22
2022-09-03T14:00:10.118Z,96585.19
2022-09-03T14:03:06.469Z,96590.50
2022-09-03T14:06:04.978Z,96589.16
2022-09-03T14:09:02.356Z,96591.19
2022-09-03T14:11:53.133Z,96592.72
2022-09-03T14:15:03.453Z,96600.38
2022-09-03T14:17:56.124Z,96602.88
2022-09-03T14:20:28.764Z,96611.66
2022-09-03T14:23:34.729Z,96604.53
2022-09-03T14:26:05.401Z,96597.09
2022-09-03T14:28:36.347Z,96594.88
2022-09-03T14:31:06.106Z,96579.69
2022-09-03T14:34:00.367Z,96577.56
2022-09-03T14:36:40.084Z,96577.03
2022-09-03T14:39:21.684Z,96576.13
2022-09-03T14:42:23.214Z,96569.75
2022-09-03T14:44:52.632Z,96563.81
2022-09-03T14:47:53.878Z,96559.78
2022-09-03T14:50:32.312Z,96563.59
2022-09-03T14:53:30.100Z,96535.16
2022-09-03T14:56:28.710Z,96541.19
2022-09-03T14:59:34.621Z,96531.34
2022-09-03T15:02:27.831Z,96536.25
2022-09-03T15:05:15.461Z,96541.84
2022-09-03T15:07:49.152Z,96530.25
2022-09-03T15:10:50.311Z,96529.78
2022-09-03T15:13:26.089Z,96526.00
2022-09-03T15:16:02.144Z,96516.72
2022-09-03T15:19:06.067Z,96517.91
2022-09-03T15:21:54.720Z,96498.81
2022-09-03T15:24:50.759Z,96516.94
2022-09-03T15:28:02.200Z,96498.81
2022-09-03T15:30:56.379Z,96525.66
2022-09-03T15:33:54.889Z,96537.78
2022-09-03T15:36:24.303Z,96536.97
2022-09-03T15:38:58.096Z,96535.69
2022-09-03T15:41:59.854Z,96532.72
2022-09-03T15:44:35.399Z,96545.72
2022-09-03T15:47:14.030Z,96532.63
2022-09-03T15:50:29.608Z,96542.84
2022-09-03T15:52:59.773Z,96545.31
2022-09-03T15:55:28.967Z,96552.34
2022-09-03T15:58:08.535Z,96558.25
2022-09-03T16:00:41.901Z,96562.47
2022-09-03T16:03:11.400Z,96572.06
2022-09-03T16:06:16.742Z,96571.53
2022-09-03T16:09:10.636Z,96582.22
2022-09-03T16:11:49.077Z,96588.56
2022-09-03T16:14:23.230Z,96588.13
2022-09-03T16:16:59.399Z,96587.25
2022-09-03T16:19:48.112Z,96586.19
2022-09-03T16:22:26.673Z,96598.91
2022-09-03T16:25:01.127Z,96604.03
2022-09-03T16:27:56.246Z,96601.06
2022-09-03T16:30:37.349Z,96610.34
2022-09-03T16:33:19.072Z,96608.84
2022-09-03T16:36:00.715Z,96612.78
2022-09-03T16:38:34.855Z,96608.28
2022-09-03T16:41:12.859Z,96629.56
2022-09-03T16:43:45.045Z,96619.13
2022-09-03T16:46:34.502Z,96627.41
2022-09-03T16:49:12.608Z,96624.88
2022-09-03T16:51:55.937Z,96620.88
2022-09-03T16:54:38.340Z,96619.22
2022-09-03T16:57:24.295Z,96618.22
2022-09-03T17:00:08.462Z,96620.78
2022-09-03T17:02:52.343Z,96597.22
2022-09-03T17:05:34.135Z,96609.34
2022-09-03T17:08:08.330Z,96603.03
2022-09-03T17:10:48.886Z,96605.38
2022-09-03T17:13:35.864Z,96618.00
2022-09-03T17:16:31.871Z,96609.59
2022-09-03T17:19:13.544Z,96601.78
2022-09-03T17:22:34.225Z,96592.53
2022-09-03T17:25:08.776Z,96595.50
2022-09-03T17:27:57.212Z,96605.69
2022-09-03T17:30:48.556Z,96603.97
2022-09-03T17:33:35.483Z,96606.13
2022-09-03T17:36:18.668Z,96602.94
2022-09-03T17:39:22.588Z,96605.97
2022-09-03T17:41:58.634Z,96610.03
2022-09-03T17:44:59.670Z,96620.41
2022-09-03T17:48:05.443Z,96628.56
2022-09-03T17:50:43.558Z,96624.44
2022-09-03T17:53:18.931Z,96629.25
2022-09-03T17:55:56.662Z,96633.44
2022-09-03T17:58:31.100Z,96614.88
2022-09-03T18:01:07.675Z,96636.66
2022-09-03T18:03:45.779Z,96639.50
2022-09-03T18:06:31.988Z,96641.50
2022-09-03T18:09:19.981Z,96647.75
2022-09-03T18:11:56.304Z,96650.53
2022-09-03T18:14:39.847Z,96657.97
2022-09-03T18:17:16.625Z,96667.59
2022-09-03T18:20:10.779Z,96677.69
2022-09-03T18:23:07.435Z,96674.50
2022-09-03T18:25:55.873Z,96684.34
2022-09-03T18:28:50.631Z,96687.84
2022-09-03T18:31:35.586Z,96695.28
2022-09-03T18:34:22.519Z,96695.00
2022-09-03T18:37:07.880Z,96691.34
2022-09-03T18:39:53.161Z,96699.84
2022-09-03T18:43:06.795Z,96691.38
2022-09-03T18:46:46.209Z,96702.06
2022-09-03T18:49:16.632Z,96720.88
2022-09-03T18:52:14.830Z,96723.59
2022-09-03T18:55:12.090Z,96721.22
2022-09-03T18:58:07.355Z,96724.97
2022-09-03T19:00:58.012Z,96718.09
2022-09-03T19:04:07.019Z,96711.97
2022-09-03T19:07:20.482Z,96711.22
2022-09-03T19:10:24.160Z,96714.41
2022-09-03T19:13:15.326Z,96726.59
2022-09-03T19:16:11.111Z,96726.88
2022-09-03T19:19:27.245Z,96721.09
2022-09-03T19:22:26.531Z,96729.59
2022-09-03T19:25:18.120Z,96730.66
2022-09-03T19:28:21.417Z,96719.81
2022-09-03T19:31:14.905Z,96727.78
2022-09-03T19:34:16.585Z,96733.06
2022-09-03T19:37:25.308Z,96729.16
2022-09-03T19:40:32.829Z,96692.44
2022-09-03T19:43:37.179Z,96738.66
2022-09-03T19:46:31.667Z,96748.47
2022-09-03T19:49:30.107Z,96754.53
2022-09-03T19:52:30.292Z,96741.31
2022-09-03T19:55:16.720Z,96735.78
2022-09-03T19:58:16.650Z,96739.75
2022-09-03T20:01:12.201Z,96746.63
2022-09-03T20:03:58.087Z,96744.28
2022-09-03T20:06:43.200Z,96748.75
2022-09-03T20:09:28.826Z,96744.28
2022-09-03T20:11:58.328Z,96751.41
2022-09-03T20:14:24.819Z,96759.09
2022-09-03T20:17:16.459Z,96758.00
2022-09-03T20:20:06.992Z,96765.97
2022-09-03T20:22:47.231Z,96760.38
2022-09-03T20:26:10.724Z,96762.78
2022-09-03T20:28:57.768Z,96767.53
2022-09-03T20:31:34.850Z,96772.00
2022-09-03T20:34:19.049Z,96768.56
2022-09-03T20:36:57.633Z,96785.72
2022-09-03T20:39:42.321Z,96793.38
2022-09-03T20:42:25.344Z,96790.50
2022-09-03T20:45:13.162Z,96799.75
2022-09-03T20:48:00.077Z,96786.25
2022-09-03T20:51:05.200Z,96797.09
2022-09-03T20:53:43.472Z,96794.47
2022-09-03T20:56:16.352Z,96799.75
2022-09-03T20:59:07.620Z,96797.34
2022-09-03T21:01:46.511Z,96795.22
2022-09-03T21:04:22.474Z,96808.44
2022-09-03T21:07:22.839Z,96808.72
2022-09-03T21:10:02.998Z,96810.28
2022-09-03T21:12:57.167Z,96804.75
2022-09-03T21:15:42.496Z,96805.78
2022-09-03T21:18:20.255Z,96806.31
2022-09-03T21:21:05.417Z,96812.63
2022-09-03T21:23:38.243Z,96815.28
2022-09-03T21:26:17.026Z,96809.41
2022-09-03T21:28:59.917Z,96802.50
2022-09-03T21:31:38.377Z,96811.50
2022-09-03T21:34:16.728Z,96812.84
2022-09-03T21:36:43.638Z,96817.31
2022-09-03T21:39:15.168Z,96797.22
2022-09-03T21:41:53.187Z,96808.56
2022-09-03T21:44:41.567Z,96811.22
2022-09-03T21:47:13.922Z,96817.81
2022-09-03T21:50:16.684Z,96818.31
2022-09-03T21:53:06.883Z,96813.06
2022-09-03T21:55:46.059Z,96818.34
2022-09-03T21:58:29.960Z,96808.81
2022-09-03T22:03:07.878Z,96815.38
2022-09-03T22:06:02.111Z,96814.00
2022-09-03T22:08:49.984Z,96816.59
2022-09-03T22:11:44.964Z,96817.16
2022-09-03T22:14:17.575Z,96829.81
2022-09-03T22:17:04.321Z,96830.59
2022-09-03T22:19:37.403Z,96832.19
2022-09-03T22:22:08.207Z,96830.78
2022-09-03T22:24:58.835Z,96826.31
2022-09-03T22:27:49.665Z,96823.94
2022-09-03T22:30:21.243Z,96830.78
2022-09-03T22:33:15.433Z,96822.16
2022-09-03T22:35:55.469Z,96816.84
2022-09-03T22:38:25.381Z,96818.66
2022-09-03T22:41:27.249Z,96822.09
2022-09-03T22:44:09.480Z,96820.72
2022-09-03T22:46:52.777Z,96816.41
2022-09-03T22:49:37.414Z,96820.63
2022-09-03T22:52:28.042Z,96819.22
2022-09-03T22:55:16.580Z,96823.44
2022-09-03T22:57:51.813Z,96823.13
2022-09-03T23:00:18.994Z,96815.50
2022-09-03T23:02:53.818Z,96817.41
2022-09-03T23:05:27.767Z,96811.06
2022-09-03T23:08:01.775Z,96816.59
2022-09-03T23:10:36.377Z,96814.97
2022-09-03T23:13:05.647Z,96817.94
2022-09-03T23:15:36.067Z,96821.34
2022-09-03T23:18:17.485Z,96822.94
2022-09-03T23:21:03.940Z,96826.09
2022-09-03T23:23:46.896Z,96830.06
2022-09-03T23:26:27.073Z,96823.25
2022-09-03T23:29:17.235Z,96827.97
2022-09-03T23:31:43.911Z,96839.56
2022-09-03T23:34:10.936Z,96830.50
2022-09-03T23:37:01.331Z,96834.44
2022-09-03T23:39:33.099Z,96838.47
2022-09-03T23:42:11.528Z,96834.31
2022-09-03T23:44:52.185Z,96834.34
2022-09-03T23:47:45.885Z,96836.81
2022-09-03T23:50:31.696Z,96839.16
2022-09-03T23:53:10.456Z,96836.28
2022-09-03T23:56:05.236Z,96838.63
2022-09-03T23:58:50.647Z,96846.00
